FNHU

Nova Lisboa Airport

Huambo, Angola
TAF FNHU 212300Z 2200/2212 VRB03KT 8000 FEW018 BKN025 TEMPO 2203/2207 04005KT 9000 FEW020 BKN040 BECMG 2210/2212 10007KT 5000 RADZ FEW018 FEW025CB BKN025
Issued Valid From Valid To
Jan-21 @ 23:00 UTC
(an hour ago)
Jan-22 @ 00:00 UTC
(28 minutes ago)
Jan-22 @ 12:00 UTC
(in 12 hours)
Jan-22 @ 00:00 to Jan-22 @ 10:00
TAF FNHU 212300Z 2200/2212 VRB03KT 8000 FEW018 BKN025
Wind Visibility Clouds
Variable at 3 knots 7,998 meters
  • Few at 1,800' AGL
  • Broken at 2,500' AGL
Temporary Jan-22 @ 03:00 to Jan-22 @ 07:00
TEMPO 2203/2207 04005KT 9000 FEW020 BKN040
Wind Visibility Clouds
40° at 5 knots 8,996 meters
  • Few at 2,000' AGL
  • Broken at 4,000' AGL
Becoming Jan-22 @ 10:00 to Jan-22 @ 12:00
BECMG 2210/2212 10007KT 5000 RADZ FEW018 FEW025CB BKN025
Wind Visibility Clouds Conditions
100° at 7 knots 5,005 meters
  • Few at 1,800' AGL
  • Few at 2,500' AGL
  • Broken at 2,500' AGL
  • Rain
  • Drizzle
TAF FNHU 212300Z 2200/2212 VRB03KT 8000 FEW018 BKN025 TEMPO 2203/2207 04005KT 9000 FEW020 BKN040 BECMG 2210/2212 10007KT 5000 RADZ FEW018 FEW025CB BKN025
Issued Jan-21 @ 23:00 UTC
(an hour ago)
Valid From Jan-22 @ 00:00 UTC
(28 minutes ago)
Valid To Jan-22 @ 12:00 UTC
(in 12 hours)
Jan-22 @ 00:00 - Jan-22 @ 10:00
Wind Visibility
Variable at 3 knots 7,998 meters
Clouds
  • Few at 1,800' AGL
  • Broken at 2,500' AGL
Temporary Jan-22 @ 03:00 - Jan-22 @ 07:00
Wind Visibility
40° at 5 knots 8,996 meters
Clouds
  • Few at 2,000' AGL
  • Broken at 4,000' AGL
Becoming Jan-22 @ 10:00 - Jan-22 @ 12:00
Wind Visibility
100° at 7 knots 5,005 meters
Clouds
  • Few at 1,800' AGL
  • Few at 2,500' AGL
  • Broken at 2,500' AGL
Conditions
  • Rain
  • Drizzle